Asteria — WDE5489 — position and weather

sailwx.info

Track history (hours):
 
Tides and Currents Weather Stations Pressure Air Temp Water Temp Dewpoint Dewpoint Depression Visibility Wind Speed Wind Dir Waves Ship Positions

Asteria

Owner: Boston HarborCruises, Boston, MA. More information available from US FCC via Universal Licensing System and Coast Guard Vessel Documentation Center.

Last reported at 2017-Jan-17 18:34 UTC. Time now 2017-Jan-17 19:09 UTC.
Position N 42°21' W 071°03'.

Length 33 m; draft 2 m.

Type: High speed craft. MMSI: 367367470.

Date/timePositionNaut miles runAvg speedWind from/ knotsBaromVisibWave heightAir tempDewpointWater temp
2017-Jan-17 18:34N 42°21' W 071°03'3 0.8
2017-Jan-17 15:33N 42°20' W 070°60'3 2.5
2017-Jan-17 14:33N 42°22' W 071°02'8 8.3
2017-Jan-17 13:33N 42°15' W 070°55'6 5.6
2017-Jan-17 12:33N 42°20' W 070°60'5 5.2
2017-Jan-17 11:33N 42°15' W 070°58'2 2.2
2017-Jan-17 10:28N 42°15' W 070°55'0 0.0
2017-Jan-17 01:05N 42°15' W 070°55'815.8
2017-Jan-17 00:34N 42°21' W 071°03'8 8.3
2017-Jan-16 23:34N 42°15' W 070°55'8 8.3
2017-Jan-16 22:33N 42°21' W 071°03'0 0.1
2017-Jan-16 21:34N 42°21' W 071°03'0 0.3
2017-Jan-16 20:33N 42°21' W 071°03'8 8.4
2017-Jan-16 19:33N 42°15' W 070°55'8 8.2
2017-Jan-16 18:34N 42°21' W 071°03'0 0.3
2017-Jan-16 17:33N 42°21' W 071°03'0 0.0
2017-Jan-16 16:33N 42°21' W 071°03'1 0.6
2017-Jan-16 15:34N 42°22' W 071°02'1 0.5
2017-Jan-16 14:33N 42°22' W 071°03'9 8.5
2017-Jan-16 13:33N 42°15' W 070°55'6 6.1
2017-Jan-16 12:34N 42°20' W 071°00'5 5.3
2017-Jan-16 11:33N 42°16' W 070°56'  
2017-Jan-13 23:33N 42°15' W 070°55'8 8.4
2017-Jan-13 22:33N 42°21' W 071°03'0 0.1
2017-Jan-13 21:34N 42°21' W 071°03'8 7.1
2017-Jan-13 20:30N 42°15' W 070°58'0 0.0
2017-Jan-13 19:33N 42°15' W 070°58'0 0.0
2017-Jan-13 18:29N 42°15' W 070°58'0 0.0
2017-Jan-13 17:31N 42°15' W 070°58'0 0.0
2017-Jan-13 16:31N 42°15' W 070°58'8 8.0
2017-Jan-13 15:33N 42°22' W 071°03'0 0.4
2017-Jan-13 14:33N 42°21' W 071°02'8 8.1
2017-Jan-13 13:33N 42°15' W 070°55'5 4.8
2017-Jan-13 12:34N 42°19' W 070°59'4 4.1
2017-Jan-13 11:33N 42°15' W 070°57'7 0.7
2017-Jan-13 00:34N 42°21' W 071°02'8 8.1
2017-Jan-12 23:33N 42°15' W 070°55'8 8.4
2017-Jan-12 22:33N 42°21' W 071°03'0 0.3
2017-Jan-12 21:33N 42°21' W 071°03'0 0.3
2017-Jan-12 20:34N 42°21' W 071°03'0 0.2
2017-Jan-12 19:33N 42°22' W 071°03'0 0.0
2017-Jan-12 18:34N 42°22' W 071°03'0 0.2
2017-Jan-12 17:33N 42°21' W 071°03'0 0.0
2017-Jan-12 16:33N 42°21' W 071°03'0 0.0
2017-Jan-12 15:33N 42°21' W 071°03'1 0.7
2017-Jan-12 14:33N 42°22' W 071°02'8 8.2
2017-Jan-12 13:33N 42°15' W 070°55'5 5.5
2017-Jan-12 12:33N 42°20' W 070°60'5 4.2
2017-Jan-12 11:21N 42°15' W 070°58'2 2.7
2017-Jan-12 10:29N 42°15' W 070°55'0 0.0
2017-Jan-12 01:09N 42°15' W 070°55'814.0
2017-Jan-12 00:34N 42°21' W 071°03'8 8.3
2017-Jan-11 23:33N 42°15' W 070°55'8 8.3
2017-Jan-11 22:33N 42°21' W 071°03'0 0.1
2017-Jan-11 21:34N 42°21' W 071°03'0 0.3
2017-Jan-11 20:34N 42°21' W 071°03'8 7.5
2017-Jan-11 19:33N 42°15' W 070°58'0 0.0
2017-Jan-11 18:33N 42°15' W 070°58'0 0.0
2017-Jan-11 17:28N 42°15' W 070°58'3 3.2
2017-Jan-11 16:34N 42°17' W 070°58'6 5.7
2017-Jan-11 15:33N 42°22' W 071°03'0 0.3
2017-Jan-11 14:33N 42°22' W 071°03'8 8.4
2017-Jan-11 13:33N 42°15' W 070°55'5 5.1
2017-Jan-11 12:34N 42°19' W 070°60'4 4.3
2017-Jan-11 11:34N 42°16' W 070°56'7 0.7
2017-Jan-11 00:33N 42°21' W 071°02'8 8.1
2017-Jan-10 23:33N 42°15' W 070°55'8 8.4
2017-Jan-10 22:33N 42°21' W 071°03'0 0.2
2017-Jan-10 21:34N 42°21' W 071°03'0 0.2
2017-Jan-10 20:33N 42°21' W 071°03'8 8.4
2017-Jan-10 19:33N 42°15' W 070°55'8 8.2
2017-Jan-10 18:34N 42°21' W 071°03'0 0.2
2017-Jan-10 17:33N 42°21' W 071°03'0 0.0
2017-Jan-10 16:33N 42°21' W 071°03'1 0.7
2017-Jan-10 15:33N 42°22' W 071°02'1 0.9
2017-Jan-10 14:33N 42°22' W 071°03'9 9.1
2017-Jan-10 13:33N 42°15' W 070°55'5 5.3
2017-Jan-10 12:33N 42°19' W 070°60'5 4.8
2017-Jan-10 11:33N 42°16' W 070°55'1 0.8
2017-Jan-10 10:33N 42°15' W 070°55'0 0.0
2017-Jan-10 01:15N 42°15' W 070°55'812.2
2017-Jan-10 00:34N 42°21' W 071°03'8 8.3
2017-Jan-09 23:33N 42°15' W 070°55'8 8.2
2017-Jan-09 22:33N 42°21' W 071°03'0 0.1
2017-Jan-09 21:34N 42°21' W 071°03'0 0.1
2017-Jan-09 20:34N 42°21' W 071°03'8 7.5
2017-Jan-09 19:33N 42°15' W 070°58'0 0.0
2017-Jan-09 18:33N 42°15' W 070°58'0 0.0
2017-Jan-09 17:33N 42°15' W 070°58'0 0.3
2017-Jan-09 16:34N 42°15' W 070°58'8 7.6
2017-Jan-09 15:33N 42°22' W 071°03'0 0.3
2017-Jan-09 14:33N 42°21' W 071°03'8 8.4
2017-Jan-09 13:33N 42°15' W 070°55'5 4.7
2017-Jan-09 12:34N 42°19' W 070°59'4 4.1
2017-Jan-09 11:33N 42°16' W 070°55'  
Track history (hours):
 
Tides and Currents Weather Stations Pressure Air Temp Water Temp Dewpoint Dewpoint Depression Visibility Wind Speed Wind Dir Waves Ship Positions

Asteria

Owner: Boston HarborCruises, Boston, MA. More information available from US FCC via Universal Licensing System and Coast Guard Vessel Documentation Center.

Last reported at 2017-Jan-17 18:34 UTC. Time now 2017-Jan-17 19:09 UTC.
Position N 42°21' W 071°03'.

Length 33 m; draft 2 m.

Type: High speed craft. MMSI: 367367470.

Date/timePositionNaut miles runAvg speedWind from/ knotsBaromVisibWave heightAir tempDewpointWater temp
2017-Jan-17 18:34N 42°21' W 071°03'3 0.8
2017-Jan-17 15:33N 42°20' W 070°60'3 2.5
2017-Jan-17 14:33N 42°22' W 071°02'8 8.3
2017-Jan-17 13:33N 42°15' W 070°55'6 5.6
2017-Jan-17 12:33N 42°20' W 070°60'5 5.2
2017-Jan-17 11:33N 42°15' W 070°58'2 2.2
2017-Jan-17 10:28N 42°15' W 070°55'0 0.0
2017-Jan-17 01:05N 42°15' W 070°55'815.8
2017-Jan-17 00:34N 42°21' W 071°03'8 8.3
2017-Jan-16 23:34N 42°15' W 070°55'8 8.3
2017-Jan-16 22:33N 42°21' W 071°03'0 0.1
2017-Jan-16 21:34N 42°21' W 071°03'0 0.3
2017-Jan-16 20:33N 42°21' W 071°03'8 8.4
2017-Jan-16 19:33N 42°15' W 070°55'8 8.2
2017-Jan-16 18:34N 42°21' W 071°03'0 0.3
2017-Jan-16 17:33N 42°21' W 071°03'0 0.0
2017-Jan-16 16:33N 42°21' W 071°03'1 0.6
2017-Jan-16 15:34N 42°22' W 071°02'1 0.5
2017-Jan-16 14:33N 42°22' W 071°03'9 8.5
2017-Jan-16 13:33N 42°15' W 070°55'6 6.1
2017-Jan-16 12:34N 42°20' W 071°00'5 5.3
2017-Jan-16 11:33N 42°16' W 070°56'  
2017-Jan-13 23:33N 42°15' W 070°55'8 8.4
2017-Jan-13 22:33N 42°21' W 071°03'0 0.1
2017-Jan-13 21:34N 42°21' W 071°03'8 7.1
2017-Jan-13 20:30N 42°15' W 070°58'0 0.0
2017-Jan-13 19:33N 42°15' W 070°58'0 0.0
2017-Jan-13 18:29N 42°15' W 070°58'0 0.0
2017-Jan-13 17:31N 42°15' W 070°58'0 0.0
2017-Jan-13 16:31N 42°15' W 070°58'8 8.0
2017-Jan-13 15:33N 42°22' W 071°03'0 0.4
2017-Jan-13 14:33N 42°21' W 071°02'8 8.1
2017-Jan-13 13:33N 42°15' W 070°55'5 4.8
2017-Jan-13 12:34N 42°19' W 070°59'4 4.1
2017-Jan-13 11:33N 42°15' W 070°57'7 0.7
2017-Jan-13 00:34N 42°21' W 071°02'8 8.1
2017-Jan-12 23:33N 42°15' W 070°55'8 8.4
2017-Jan-12 22:33N 42°21' W 071°03'0 0.3
2017-Jan-12 21:33N 42°21' W 071°03'0 0.3
2017-Jan-12 20:34N 42°21' W 071°03'0 0.2
2017-Jan-12 19:33N 42°22' W 071°03'0 0.0
2017-Jan-12 18:34N 42°22' W 071°03'0 0.2
2017-Jan-12 17:33N 42°21' W 071°03'0 0.0
2017-Jan-12 16:33N 42°21' W 071°03'0 0.0
2017-Jan-12 15:33N 42°21' W 071°03'1 0.7
2017-Jan-12 14:33N 42°22' W 071°02'8 8.2
2017-Jan-12 13:33N 42°15' W 070°55'5 5.5
2017-Jan-12 12:33N 42°20' W 070°60'5 4.2
2017-Jan-12 11:21N 42°15' W 070°58'2 2.7
2017-Jan-12 10:29N 42°15' W 070°55'0 0.0
2017-Jan-12 01:09N 42°15' W 070°55'814.0
2017-Jan-12 00:34N 42°21' W 071°03'8 8.3
2017-Jan-11 23:33N 42°15' W 070°55'8 8.3
2017-Jan-11 22:33N 42°21' W 071°03'0 0.1
2017-Jan-11 21:34N 42°21' W 071°03'0 0.3
2017-Jan-11 20:34N 42°21' W 071°03'8 7.5
2017-Jan-11 19:33N 42°15' W 070°58'0 0.0
2017-Jan-11 18:33N 42°15' W 070°58'0 0.0
2017-Jan-11 17:28N 42°15' W 070°58'3 3.2
2017-Jan-11 16:34N 42°17' W 070°58'6 5.7
2017-Jan-11 15:33N 42°22' W 071°03'0 0.3
2017-Jan-11 14:33N 42°22' W 071°03'8 8.4
2017-Jan-11 13:33N 42°15' W 070°55'5 5.1
2017-Jan-11 12:34N 42°19' W 070°60'4 4.3
2017-Jan-11 11:34N 42°16' W 070°56'7 0.7
2017-Jan-11 00:33N 42°21' W 071°02'8 8.1
2017-Jan-10 23:33N 42°15' W 070°55'8 8.4
2017-Jan-10 22:33N 42°21' W 071°03'0 0.2
2017-Jan-10 21:34N 42°21' W 071°03'0 0.2
2017-Jan-10 20:33N 42°21' W 071°03'8 8.4
2017-Jan-10 19:33N 42°15' W 070°55'8 8.2
2017-Jan-10 18:34N 42°21' W 071°03'0 0.2
2017-Jan-10 17:33N 42°21' W 071°03'0 0.0
2017-Jan-10 16:33N 42°21' W 071°03'1 0.7
2017-Jan-10 15:33N 42°22' W 071°02'1 0.9
2017-Jan-10 14:33N 42°22' W 071°03'9 9.1
2017-Jan-10 13:33N 42°15' W 070°55'5 5.3
2017-Jan-10 12:33N 42°19' W 070°60'5 4.8
2017-Jan-10 11:33N 42°16' W 070°55'1 0.8
2017-Jan-10 10:33N 42°15' W 070°55'0 0.0
2017-Jan-10 01:15N 42°15' W 070°55'812.2
2017-Jan-10 00:34N 42°21' W 071°03'8 8.3
2017-Jan-09 23:33N 42°15' W 070°55'8 8.2
2017-Jan-09 22:33N 42°21' W 071°03'0 0.1
2017-Jan-09 21:34N 42°21' W 071°03'0 0.1
2017-Jan-09 20:34N 42°21' W 071°03'8 7.5
2017-Jan-09 19:33N 42°15' W 070°58'0 0.0
2017-Jan-09 18:33N 42°15' W 070°58'0 0.0
2017-Jan-09 17:33N 42°15' W 070°58'0 0.3
2017-Jan-09 16:34N 42°15' W 070°58'8 7.6
2017-Jan-09 15:33N 42°22' W 071°03'0 0.3
2017-Jan-09 14:33N 42°21' W 071°03'8 8.4
2017-Jan-09 13:33N 42°15' W 070°55'5 4.7
2017-Jan-09 12:34N 42°19' W 070°59'4 4.1
2017-Jan-09 11:33N 42°16' W 070°55'  

Dump ship's entire track history